Terminal Aerodrome Forecast
Issued by NWS Flagstaff, AZ

Home | Current Version | Previous Version | Text Only | Print | Product List | Glossary On
Versions: 1 2 3 4 5 6 7 8 9 10 11 12 13 14 15 16 17 18 19 20 21 22 23 24 25 26
000
FTUS45 KFGZ 051143
TAFINW
TAF
KINW 051143Z 0512/0612 23007KT P6SM OVC060
     FM051900 23012KT P6SM -SHRA BKN035 OVC100
      TEMPO 0520/0524 VRB10G25KT -TSRA OVC025CB
     FM060300 22012KT P6SM BKN050=

USA.gov is the U.S. government's official web portal to all federal, state and local government web resources and services.